Dizelist — EMVZ — position and weather

sailwx.info

Track history (hours):
 
Tides and Currents Weather Stations Pressure Air Temp Water Temp Dewpoint Dewpoint Depression Visibility Wind Speed Wind Dir Waves Ship Positions

Dizelist

Last reported at 2014-Nov-14 00:33 UTC. Time now 2014-Nov-28 07:03 UTC.
Position N 44°36' E 033°23'.
Warning: this ship's position is 14 days out of date.

Length 24 m; draft 1.8 m.

Type: Tug. MMSI: 272880800.

Date/timePositionNaut miles runAvg speedWind from/ knotsBaromVisibWave heightAir tempDewpointWater temp
2014-Nov-14 00:33N 44°36' E 033°23'34 6.6
2014-Nov-13 19:25N 44°24' E 034°08'7 8.1
2014-Nov-13 18:33N 44°27' E 034°17'8 8.5
2014-Nov-13 17:33N 44°31' E 034°27'8 8.4
2014-Nov-13 16:33N 44°35' E 034°38'8 8.2
2014-Nov-13 15:33N 44°39' E 034°47'8 8.2
2014-Nov-13 14:34N 44°44' E 034°57'9 8.2
2014-Nov-13 13:29N 44°48' E 035°08'9 8.0
2014-Nov-13 12:20N 44°54' E 035°18'8 7.5
2014-Nov-13 11:15N 45°00' E 035°25'  
Track history (hours):
 
Tides and Currents Weather Stations Pressure Air Temp Water Temp Dewpoint Dewpoint Depression Visibility Wind Speed Wind Dir Waves Ship Positions

Dizelist

Last reported at 2014-Nov-14 00:33 UTC. Time now 2014-Nov-28 07:03 UTC.
Position N 44°36' E 033°23'.
Warning: this ship's position is 14 days out of date.

Length 24 m; draft 1.8 m.

Type: Tug. MMSI: 272880800.

Date/timePositionNaut miles runAvg speedWind from/ knotsBaromVisibWave heightAir tempDewpointWater temp
2014-Nov-14 00:33N 44°36' E 033°23'34 6.6
2014-Nov-13 19:25N 44°24' E 034°08'7 8.1
2014-Nov-13 18:33N 44°27' E 034°17'8 8.5
2014-Nov-13 17:33N 44°31' E 034°27'8 8.4
2014-Nov-13 16:33N 44°35' E 034°38'8 8.2
2014-Nov-13 15:33N 44°39' E 034°47'8 8.2
2014-Nov-13 14:34N 44°44' E 034°57'9 8.2
2014-Nov-13 13:29N 44°48' E 035°08'9 8.0
2014-Nov-13 12:20N 44°54' E 035°18'8 7.5
2014-Nov-13 11:15N 45°00' E 035°25'  

Dump ship's entire track history